sensor_id;sensor_type;location;lat;lon;timestamp;P1;durP1;ratioP1;P2;durP2;ratioP2
78484;SDS011;67773;50.806;8.776;2023-04-27T00:01:33;7.33;;;3.70;;
78484;SDS011;67773;50.806;8.776;2023-04-27T00:03:58;8.13;;;4.38;;
78484;SDS011;67773;50.806;8.776;2023-04-27T00:06:24;5.60;;;3.50;;
78484;SDS011;67773;50.806;8.776;2023-04-27T00:08:50;8.25;;;4.32;;
78484;SDS011;67773;50.806;8.776;2023-04-27T00:11:15;7.03;;;4.00;;
78484;SDS011;67773;50.806;8.776;2023-04-27T00:13:41;6.63;;;3.50;;
78484;SDS011;67773;50.806;8.776;2023-04-27T00:16:06;10.43;;;4.57;;
78484;SDS011;67773;50.806;8.776;2023-04-27T00:18:31;7.63;;;4.77;;
78484;SDS011;67773;50.806;8.776;2023-04-27T00:20:57;5.55;;;4.05;;
78484;SDS011;67773;50.806;8.776;2023-04-27T00:23:22;5.70;;;4.25;;
78484;SDS011;67773;50.806;8.776;2023-04-27T00:25:48;9.45;;;4.72;;
78484;SDS011;67773;50.806;8.776;2023-04-27T00:28:13;6.27;;;4.57;;
78484;SDS011;67773;50.806;8.776;2023-04-27T00:30:39;7.53;;;4.43;;
78484;SDS011;67773;50.806;8.776;2023-04-27T00:33:04;5.75;;;3.92;;
78484;SDS011;67773;50.806;8.776;2023-04-27T00:35:31;7.90;;;5.20;;
78484;SDS011;67773;50.806;8.776;2023-04-27T00:37:57;6.85;;;4.55;;
78484;SDS011;67773;50.806;8.776;2023-04-27T00:40:22;8.93;;;4.87;;
78484;SDS011;67773;50.806;8.776;2023-04-27T00:42:49;7.00;;;4.40;;
78484;SDS011;67773;50.806;8.776;2023-04-27T00:45:14;8.52;;;4.97;;
78484;SDS011;67773;50.806;8.776;2023-04-27T00:47:40;6.17;;;4.20;;
78484;SDS011;67773;50.806;8.776;2023-04-27T00:50:06;8.18;;;4.90;;
78484;SDS011;67773;50.806;8.776;2023-04-27T00:52:35;10.27;;;5.05;;
78484;SDS011;67773;50.806;8.776;2023-04-27T00:55:01;8.25;;;4.80;;
78484;SDS011;67773;50.806;8.776;2023-04-27T00:57:28;7.57;;;5.03;;
78484;SDS011;67773;50.806;8.776;2023-04-27T00:59:53;7.03;;;5.00;;
78484;SDS011;67773;50.806;8.776;2023-04-27T01:02:18;9.88;;;5.25;;
78484;SDS011;67773;50.806;8.776;2023-04-27T01:04:44;7.55;;;4.90;;
78484;SDS011;67773;50.806;8.776;2023-04-27T01:07:10;7.13;;;5.05;;
78484;SDS011;67773;50.806;8.776;2023-04-27T01:09:35;9.80;;;5.10;;
78484;SDS011;67773;50.806;8.776;2023-04-27T01:12:00;9.90;;;4.53;;
78484;SDS011;67773;50.806;8.776;2023-04-27T01:14:27;7.13;;;5.28;;
78484;SDS011;67773;50.806;8.776;2023-04-27T01:16:52;7.70;;;4.30;;
78484;SDS011;67773;50.806;8.776;2023-04-27T01:19:17;7.57;;;4.57;;
78484;SDS011;67773;50.806;8.776;2023-04-27T01:21:43;7.15;;;4.93;;
78484;SDS011;67773;50.806;8.776;2023-04-27T01:24:08;9.10;;;4.83;;
78484;SDS011;67773;50.806;8.776;2023-04-27T01:26:34;9.93;;;5.90;;
78484;SDS011;67773;50.806;8.776;2023-04-27T01:28:59;8.82;;;5.03;;
78484;SDS011;67773;50.806;8.776;2023-04-27T01:31:25;7.97;;;4.65;;
78484;SDS011;67773;50.806;8.776;2023-04-27T01:33:50;7.70;;;5.43;;
78484;SDS011;67773;50.806;8.776;2023-04-27T01:36:16;8.37;;;5.13;;
78484;SDS011;67773;50.806;8.776;2023-04-27T01:38:41;9.23;;;6.13;;
78484;SDS011;67773;50.806;8.776;2023-04-27T01:41:07;11.55;;;5.80;;
78484;SDS011;67773;50.806;8.776;2023-04-27T01:43:33;12.05;;;5.20;;
78484;SDS011;67773;50.806;8.776;2023-04-27T01:46:08;7.63;;;5.15;;
78484;SDS011;67773;50.806;8.776;2023-04-27T01:48:37;8.50;;;3.95;;
78484;SDS011;67773;50.806;8.776;2023-04-27T01:51:03;6.07;;;3.38;;
78484;SDS011;67773;50.806;8.776;2023-04-27T01:53:29;6.82;;;3.50;;
78484;SDS011;67773;50.806;8.776;2023-04-27T01:55:55;6.10;;;3.28;;
78484;SDS011;67773;50.806;8.776;2023-04-27T01:58:20;7.28;;;3.65;;
78484;SDS011;67773;50.806;8.776;2023-04-27T02:00:46;5.35;;;3.42;;
78484;SDS011;67773;50.806;8.776;2023-04-27T02:03:11;7.23;;;3.57;;
78484;SDS011;67773;50.806;8.776;2023-04-27T02:05:36;5.43;;;3.20;;
78484;SDS011;67773;50.806;8.776;2023-04-27T02:08:02;8.00;;;3.47;;
78484;SDS011;67773;50.806;8.776;2023-04-27T02:10:27;6.47;;;3.67;;
78484;SDS011;67773;50.806;8.776;2023-04-27T02:12:52;5.20;;;3.70;;
78484;SDS011;67773;50.806;8.776;2023-04-27T02:15:18;6.97;;;4.07;;
78484;SDS011;67773;50.806;8.776;2023-04-27T02:17:43;6.60;;;3.90;;
78484;SDS011;67773;50.806;8.776;2023-04-27T02:20:09;6.25;;;3.90;;
78484;SDS011;67773;50.806;8.776;2023-04-27T02:22:35;4.88;;;3.10;;
78484;SDS011;67773;50.806;8.776;2023-04-27T02:25:01;6.90;;;3.67;;
78484;SDS011;67773;50.806;8.776;2023-04-27T03:21:21;9.02;;;3.90;;
78484;SDS011;67773;50.806;8.776;2023-04-27T03:23:46;6.47;;;3.83;;
78484;SDS011;67773;50.806;8.776;2023-04-27T03:26:12;7.22;;;4.18;;
78484;SDS011;67773;50.806;8.776;2023-04-27T03:28:38;10.98;;;4.50;;
78484;SDS011;67773;50.806;8.776;2023-04-27T03:31:07;6.43;;;4.00;;
78484;SDS011;67773;50.806;8.776;2023-04-27T03:33:34;6.60;;;3.85;;
78484;SDS011;67773;50.806;8.776;2023-04-27T03:36:00;6.95;;;4.03;;
78484;SDS011;67773;50.806;8.776;2023-04-27T03:38:26;7.65;;;4.45;;
78484;SDS011;67773;50.806;8.776;2023-04-27T03:40:52;7.60;;;4.07;;
78484;SDS011;67773;50.806;8.776;2023-04-27T03:43:18;6.22;;;4.60;;
78484;SDS011;67773;50.806;8.776;2023-04-27T03:45:44;11.25;;;4.72;;
78484;SDS011;67773;50.806;8.776;2023-04-27T03:48:09;7.45;;;4.63;;
78484;SDS011;67773;50.806;8.776;2023-04-27T03:50:35;9.23;;;4.55;;
78484;SDS011;67773;50.806;8.776;2023-04-27T03:53:00;5.57;;;4.20;;
78484;SDS011;67773;50.806;8.776;2023-04-27T03:55:25;7.15;;;4.30;;
78484;SDS011;67773;50.806;8.776;2023-04-27T03:57:51;7.78;;;4.38;;
78484;SDS011;67773;50.806;8.776;2023-04-27T04:00:16;6.37;;;4.17;;
78484;SDS011;67773;50.806;8.776;2023-04-27T04:02:42;10.07;;;4.50;;
78484;SDS011;67773;50.806;8.776;2023-04-27T04:05:08;7.85;;;4.53;;
78484;SDS011;67773;50.806;8.776;2023-04-27T04:07:34;7.95;;;4.43;;
78484;SDS011;67773;50.806;8.776;2023-04-27T04:09:59;12.70;;;5.43;;
78484;SDS011;67773;50.806;8.776;2023-04-27T04:12:24;9.70;;;5.77;;
78484;SDS011;67773;50.806;8.776;2023-04-27T04:14:50;8.15;;;5.18;;
78484;SDS011;67773;50.806;8.776;2023-04-27T04:17:15;8.93;;;5.72;;
78484;SDS011;67773;50.806;8.776;2023-04-27T04:19:41;9.63;;;5.03;;
78484;SDS011;67773;50.806;8.776;2023-04-27T04:22:06;7.50;;;5.30;;
78484;SDS011;67773;50.806;8.776;2023-04-27T04:24:31;7.77;;;4.63;;
78484;SDS011;67773;50.806;8.776;2023-04-27T04:26:57;8.10;;;4.95;;
78484;SDS011;67773;50.806;8.776;2023-04-27T04:29:22;10.57;;;5.63;;
78484;SDS011;67773;50.806;8.776;2023-04-27T04:31:48;7.55;;;5.32;;
78484;SDS011;67773;50.806;8.776;2023-04-27T04:34:14;9.70;;;5.15;;
78484;SDS011;67773;50.806;8.776;2023-04-27T04:36:39;6.68;;;4.30;;
78484;SDS011;67773;50.806;8.776;2023-04-27T04:39:05;10.13;;;5.32;;
78484;SDS011;67773;50.806;8.776;2023-04-27T04:41:31;8.68;;;5.43;;
78484;SDS011;67773;50.806;8.776;2023-04-27T04:43:56;8.77;;;5.05;;
78484;SDS011;67773;50.806;8.776;2023-04-27T04:46:22;8.43;;;5.70;;
78484;SDS011;67773;50.806;8.776;2023-04-27T04:48:48;13.75;;;6.68;;
78484;SDS011;67773;50.806;8.776;2023-04-27T04:51:14;10.23;;;5.68;;
78484;SDS011;67773;50.806;8.776;2023-04-27T04:53:39;9.10;;;5.83;;
78484;SDS011;67773;50.806;8.776;2023-04-27T04:56:08;9.73;;;6.05;;
78484;SDS011;67773;50.806;8.776;2023-04-27T04:58:37;7.63;;;5.57;;
78484;SDS011;67773;50.806;8.776;2023-04-27T05:01:04;9.25;;;5.60;;
78484;SDS011;67773;50.806;8.776;2023-04-27T05:03:29;9.25;;;5.57;;
78484;SDS011;67773;50.806;8.776;2023-04-27T05:05:55;11.25;;;5.97;;
78484;SDS011;67773;50.806;8.776;2023-04-27T05:08:20;8.53;;;4.97;;
78484;SDS011;67773;50.806;8.776;2023-04-27T05:10:49;7.40;;;4.67;;
78484;SDS011;67773;50.806;8.776;2023-04-27T05:13:15;10.23;;;4.75;;
78484;SDS011;67773;50.806;8.776;2023-04-27T05:15:41;9.60;;;5.57;;
78484;SDS011;67773;50.806;8.776;2023-04-27T05:18:06;8.30;;;5.23;;
78484;SDS011;67773;50.806;8.776;2023-04-27T05:20:35;9.53;;;5.17;;
78484;SDS011;67773;50.806;8.776;2023-04-27T05:23:01;9.73;;;6.25;;
78484;SDS011;67773;50.806;8.776;2023-04-27T05:25:30;10.70;;;6.38;;
78484;SDS011;67773;50.806;8.776;2023-04-27T05:27:56;8.60;;;5.15;;
78484;SDS011;67773;50.806;8.776;2023-04-27T05:30:21;8.63;;;5.30;;
78484;SDS011;67773;50.806;8.776;2023-04-27T05:32:47;8.88;;;5.45;;
78484;SDS011;67773;50.806;8.776;2023-04-27T05:35:12;13.80;;;6.73;;
78484;SDS011;67773;50.806;8.776;2023-04-27T05:37:37;14.57;;;8.77;;
78484;SDS011;67773;50.806;8.776;2023-04-27T05:40:03;12.45;;;8.05;;
78484;SDS011;67773;50.806;8.776;2023-04-27T05:42:30;10.38;;;6.65;;
78484;SDS011;67773;50.806;8.776;2023-04-27T05:44:55;9.93;;;6.50;;
78484;SDS011;67773;50.806;8.776;2023-04-27T05:47:20;10.43;;;6.43;;
78484;SDS011;67773;50.806;8.776;2023-04-27T05:49:49;10.07;;;6.67;;
78484;SDS011;67773;50.806;8.776;2023-04-27T05:52:15;10.20;;;6.20;;
78484;SDS011;67773;50.806;8.776;2023-04-27T05:54:44;9.65;;;6.15;;
78484;SDS011;67773;50.806;8.776;2023-04-27T05:57:11;14.73;;;6.28;;
78484;SDS011;67773;50.806;8.776;2023-04-27T05:59:36;13.60;;;7.37;;
78484;SDS011;67773;50.806;8.776;2023-04-27T06:02:01;11.93;;;6.00;;
78484;SDS011;67773;50.806;8.776;2023-04-27T06:04:27;9.37;;;6.03;;
78484;SDS011;67773;50.806;8.776;2023-04-27T06:06:53;12.38;;;6.78;;
78484;SDS011;67773;50.806;8.776;2023-04-27T06:09:19;9.70;;;6.40;;
78484;SDS011;67773;50.806;8.776;2023-04-27T06:11:44;9.52;;;5.85;;
78484;SDS011;67773;50.806;8.776;2023-04-27T06:14:11;9.18;;;6.38;;
78484;SDS011;67773;50.806;8.776;2023-04-27T06:16:37;11.23;;;6.13;;
78484;SDS011;67773;50.806;8.776;2023-04-27T06:19:04;10.02;;;6.07;;
78484;SDS011;67773;50.806;8.776;2023-04-27T06:21:31;10.20;;;5.40;;
78484;SDS011;67773;50.806;8.776;2023-04-27T06:24:00;15.60;;;8.13;;
78484;SDS011;67773;50.806;8.776;2023-04-27T06:26:26;11.27;;;6.05;;
78484;SDS011;67773;50.806;8.776;2023-04-27T06:28:52;11.85;;;7.03;;
78484;SDS011;67773;50.806;8.776;2023-04-27T06:31:18;9.98;;;6.47;;
78484;SDS011;67773;50.806;8.776;2023-04-27T06:33:43;10.27;;;5.80;;
78484;SDS011;67773;50.806;8.776;2023-04-27T06:36:09;9.60;;;5.87;;
78484;SDS011;67773;50.806;8.776;2023-04-27T06:38:34;12.05;;;6.53;;
78484;SDS011;67773;50.806;8.776;2023-04-27T06:41:00;14.20;;;7.00;;
78484;SDS011;67773;50.806;8.776;2023-04-27T06:43:25;9.73;;;6.10;;
78484;SDS011;67773;50.806;8.776;2023-04-27T06:45:50;11.90;;;5.80;;
78484;SDS011;67773;50.806;8.776;2023-04-27T06:48:16;10.93;;;6.67;;
78484;SDS011;67773;50.806;8.776;2023-04-27T06:50:41;12.40;;;6.28;;
78484;SDS011;67773;50.806;8.776;2023-04-27T06:53:07;9.68;;;6.10;;
78484;SDS011;67773;50.806;8.776;2023-04-27T06:55:33;10.48;;;6.05;;
78484;SDS011;67773;50.806;8.776;2023-04-27T06:57:58;8.25;;;5.55;;
78484;SDS011;67773;50.806;8.776;2023-04-27T07:00:24;10.20;;;6.35;;
78484;SDS011;67773;50.806;8.776;2023-04-27T07:02:49;11.75;;;6.40;;
78484;SDS011;67773;50.806;8.776;2023-04-27T07:05:15;10.88;;;5.93;;
78484;SDS011;67773;50.806;8.776;2023-04-27T07:07:40;8.98;;;5.68;;
78484;SDS011;67773;50.806;8.776;2023-04-27T07:10:06;10.45;;;5.82;;
78484;SDS011;67773;50.806;8.776;2023-04-27T07:12:32;8.48;;;5.65;;
78484;SDS011;67773;50.806;8.776;2023-04-27T07:14:57;10.23;;;5.85;;
78484;SDS011;67773;50.806;8.776;2023-04-27T07:17:23;9.07;;;5.50;;
78484;SDS011;67773;50.806;8.776;2023-04-27T07:19:48;9.40;;;5.47;;
78484;SDS011;67773;50.806;8.776;2023-04-27T07:22:13;10.03;;;5.80;;
78484;SDS011;67773;50.806;8.776;2023-04-27T07:24:39;7.60;;;5.22;;
78484;SDS011;67773;50.806;8.776;2023-04-27T07:27:05;14.23;;;6.15;;
78484;SDS011;67773;50.806;8.776;2023-04-27T07:29:30;9.80;;;5.57;;
78484;SDS011;67773;50.806;8.776;2023-04-27T07:31:56;12.07;;;5.63;;
78484;SDS011;67773;50.806;8.776;2023-04-27T07:34:21;10.43;;;4.97;;
78484;SDS011;67773;50.806;8.776;2023-04-27T07:36:47;10.55;;;5.43;;
78484;SDS011;67773;50.806;8.776;2023-04-27T07:39:12;9.93;;;5.37;;
78484;SDS011;67773;50.806;8.776;2023-04-27T07:41:38;12.05;;;6.78;;
78484;SDS011;67773;50.806;8.776;2023-04-27T07:44:03;9.73;;;5.40;;
78484;SDS011;67773;50.806;8.776;2023-04-27T07:46:29;11.47;;;5.23;;
78484;SDS011;67773;50.806;8.776;2023-04-27T07:48:55;14.43;;;5.68;;
78484;SDS011;67773;50.806;8.776;2023-04-27T07:51:23;10.57;;;5.28;;
78484;SDS011;67773;50.806;8.776;2023-04-27T07:53:49;9.40;;;5.15;;
78484;SDS011;67773;50.806;8.776;2023-04-27T07:56:15;9.13;;;4.88;;
78484;SDS011;67773;50.806;8.776;2023-04-27T07:58:40;10.07;;;4.90;;
78484;SDS011;67773;50.806;8.776;2023-04-27T08:01:07;8.90;;;4.38;;
78484;SDS011;67773;50.806;8.776;2023-04-27T08:03:32;7.45;;;4.40;;
78484;SDS011;67773;50.806;8.776;2023-04-27T08:05:58;22.27;;;8.57;;
78484;SDS011;67773;50.806;8.776;2023-04-27T08:08:23;10.63;;;5.27;;
78484;SDS011;67773;50.806;8.776;2023-04-27T08:10:48;8.65;;;4.93;;
78484;SDS011;67773;50.806;8.776;2023-04-27T08:13:14;8.63;;;4.70;;
78484;SDS011;67773;50.806;8.776;2023-04-27T08:15:39;7.32;;;4.43;;
78484;SDS011;67773;50.806;8.776;2023-04-27T08:18:04;8.23;;;4.28;;
78484;SDS011;67773;50.806;8.776;2023-04-27T08:20:30;6.83;;;4.10;;
78484;SDS011;67773;50.806;8.776;2023-04-27T08:22:55;6.33;;;3.17;;
78484;SDS011;67773;50.806;8.776;2023-04-27T08:25:20;10.70;;;3.57;;
78484;SDS011;67773;50.806;8.776;2023-04-27T08:27:46;7.65;;;4.15;;
78484;SDS011;67773;50.806;8.776;2023-04-27T08:30:11;7.77;;;4.57;;
78484;SDS011;67773;50.806;8.776;2023-04-27T08:32:37;7.65;;;4.40;;
78484;SDS011;67773;50.806;8.776;2023-04-27T08:35:02;9.60;;;4.37;;
78484;SDS011;67773;50.806;8.776;2023-04-27T08:37:28;7.00;;;4.18;;
78484;SDS011;67773;50.806;8.776;2023-04-27T08:39:53;8.03;;;4.93;;
78484;SDS011;67773;50.806;8.776;2023-04-27T08:42:19;10.00;;;4.87;;
78484;SDS011;67773;50.806;8.776;2023-04-27T08:44:44;8.40;;;4.15;;
78484;SDS011;67773;50.806;8.776;2023-04-27T08:47:10;8.45;;;4.47;;
78484;SDS011;67773;50.806;8.776;2023-04-27T08:49:36;6.82;;;4.20;;
78484;SDS011;67773;50.806;8.776;2023-04-27T08:52:15;8.40;;;4.43;;
78484;SDS011;67773;50.806;8.776;2023-04-27T08:54:41;9.40;;;5.15;;
78484;SDS011;67773;50.806;8.776;2023-04-27T08:57:16;7.25;;;3.78;;
78484;SDS011;67773;50.806;8.776;2023-04-27T08:59:41;7.82;;;3.90;;
78484;SDS011;67773;50.806;8.776;2023-04-27T09:02:19;8.40;;;4.43;;
78484;SDS011;67773;50.806;8.776;2023-04-27T09:04:45;7.95;;;3.95;;
78484;SDS011;67773;50.806;8.776;2023-04-27T09:07:11;6.45;;;3.42;;
78484;SDS011;67773;50.806;8.776;2023-04-27T09:09:38;8.98;;;4.05;;
78484;SDS011;67773;50.806;8.776;2023-04-27T09:12:12;6.87;;;4.57;;
78484;SDS011;67773;50.806;8.776;2023-04-27T09:14:57;10.98;;;3.90;;
78484;SDS011;67773;50.806;8.776;2023-04-27T09:17:27;6.57;;;4.10;;
78484;SDS011;67773;50.806;8.776;2023-04-27T09:25:09;8.85;;;3.83;;
78484;SDS011;67773;50.806;8.776;2023-04-27T09:27:38;6.78;;;3.38;;
78484;SDS011;67773;50.806;8.776;2023-04-27T09:30:13;6.32;;;3.85;;
78484;SDS011;67773;50.806;8.776;2023-04-27T09:32:39;6.72;;;3.65;;
78484;SDS011;67773;50.806;8.776;2023-04-27T09:35:15;8.68;;;3.58;;
78484;SDS011;67773;50.806;8.776;2023-04-27T09:37:45;7.07;;;3.88;;
78484;SDS011;67773;50.806;8.776;2023-04-27T09:40:12;7.20;;;3.60;;
78484;SDS011;67773;50.806;8.776;2023-04-27T09:42:38;6.72;;;3.95;;
78484;SDS011;67773;50.806;8.776;2023-04-27T09:45:04;7.25;;;4.13;;
78484;SDS011;67773;50.806;8.776;2023-04-27T09:47:31;6.45;;;4.20;;
78484;SDS011;67773;50.806;8.776;2023-04-27T09:49:58;5.93;;;3.88;;
78484;SDS011;67773;50.806;8.776;2023-04-27T09:52:25;7.90;;;4.53;;
78484;SDS011;67773;50.806;8.776;2023-04-27T09:54:52;7.40;;;4.27;;
78484;SDS011;67773;50.806;8.776;2023-04-27T09:57:27;6.07;;;4.00;;
78484;SDS011;67773;50.806;8.776;2023-04-27T10:00:12;6.38;;;4.50;;
78484;SDS011;67773;50.806;8.776;2023-04-27T10:05:45;6.55;;;3.95;;
78484;SDS011;67773;50.806;8.776;2023-04-27T10:08:35;7.78;;;4.10;;
78484;SDS011;67773;50.806;8.776;2023-04-27T10:11:11;5.75;;;4.03;;
78484;SDS011;67773;50.806;8.776;2023-04-27T10:13:37;8.48;;;4.25;;
78484;SDS011;67773;50.806;8.776;2023-04-27T10:16:21;6.87;;;4.27;;
78484;SDS011;67773;50.806;8.776;2023-04-27T10:18:53;8.45;;;4.82;;
78484;SDS011;67773;50.806;8.776;2023-04-27T10:21:20;8.88;;;4.85;;
78484;SDS011;67773;50.806;8.776;2023-04-27T10:23:46;8.05;;;4.28;;
78484;SDS011;67773;50.806;8.776;2023-04-27T10:26:22;6.25;;;4.20;;
78484;SDS011;67773;50.806;8.776;2023-04-27T10:29:03;10.05;;;4.75;;
78484;SDS011;67773;50.806;8.776;2023-04-27T10:31:31;6.78;;;4.75;;
78484;SDS011;67773;50.806;8.776;2023-04-27T10:34:07;7.88;;;4.57;;
78484;SDS011;67773;50.806;8.776;2023-04-27T10:36:37;8.15;;;4.20;;
78484;SDS011;67773;50.806;8.776;2023-04-27T10:39:12;9.15;;;4.85;;
78484;SDS011;67773;50.806;8.776;2023-04-27T10:41:49;7.65;;;4.60;;
78484;SDS011;67773;50.806;8.776;2023-04-27T10:44:18;8.10;;;4.68;;
78484;SDS011;67773;50.806;8.776;2023-04-27T10:46:49;7.93;;;5.05;;
78484;SDS011;67773;50.806;8.776;2023-04-27T10:49:18;7.68;;;4.90;;
78484;SDS011;67773;50.806;8.776;2023-04-27T10:51:43;7.03;;;4.70;;
78484;SDS011;67773;50.806;8.776;2023-04-27T10:54:09;9.70;;;6.10;;
78484;SDS011;67773;50.806;8.776;2023-04-27T10:56:35;8.88;;;5.90;;
78484;SDS011;67773;50.806;8.776;2023-04-27T10:59:01;9.13;;;5.32;;
78484;SDS011;67773;50.806;8.776;2023-04-27T11:01:28;8.50;;;5.10;;
78484;SDS011;67773;50.806;8.776;2023-04-27T11:03:57;8.15;;;5.38;;
78484;SDS011;67773;50.806;8.776;2023-04-27T11:06:23;8.45;;;4.95;;
78484;SDS011;67773;50.806;8.776;2023-04-27T11:08:49;6.78;;;4.88;;
78484;SDS011;67773;50.806;8.776;2023-04-27T11:11:14;8.57;;;5.15;;
78484;SDS011;67773;50.806;8.776;2023-04-27T11:13:41;7.88;;;4.80;;
78484;SDS011;67773;50.806;8.776;2023-04-27T11:16:08;6.07;;;4.40;;
78484;SDS011;67773;50.806;8.776;2023-04-27T11:18:35;6.63;;;4.60;;
78484;SDS011;67773;50.806;8.776;2023-04-27T11:21:14;8.00;;;4.95;;
78484;SDS011;67773;50.806;8.776;2023-04-27T11:23:41;7.25;;;5.00;;
78484;SDS011;67773;50.806;8.776;2023-04-27T11:26:28;8.00;;;4.68;;
78484;SDS011;67773;50.806;8.776;2023-04-27T11:31:23;8.18;;;4.80;;
78484;SDS011;67773;50.806;8.776;2023-04-27T11:33:49;8.50;;;5.00;;
78484;SDS011;67773;50.806;8.776;2023-04-27T11:36:18;8.80;;;5.53;;
78484;SDS011;67773;50.806;8.776;2023-04-27T11:38:45;7.50;;;4.80;;
78484;SDS011;67773;50.806;8.776;2023-04-27T11:41:10;9.23;;;5.43;;
78484;SDS011;67773;50.806;8.776;2023-04-27T11:43:36;6.93;;;5.20;;
78484;SDS011;67773;50.806;8.776;2023-04-27T11:46:10;6.32;;;4.72;;
78484;SDS011;67773;50.806;8.776;2023-04-27T11:48:36;6.93;;;4.97;;
78484;SDS011;67773;50.806;8.776;2023-04-27T11:51:02;14.43;;;8.93;;
78484;SDS011;67773;50.806;8.776;2023-04-27T11:53:34;7.43;;;4.97;;
78484;SDS011;67773;50.806;8.776;2023-04-27T11:56:01;7.28;;;5.15;;
78484;SDS011;67773;50.806;8.776;2023-04-27T11:58:32;5.88;;;4.18;;
78484;SDS011;67773;50.806;8.776;2023-04-27T12:00:59;7.25;;;4.70;;
78484;SDS011;67773;50.806;8.776;2023-04-27T12:03:24;6.05;;;4.55;;
78484;SDS011;67773;50.806;8.776;2023-04-27T12:05:50;6.60;;;5.10;;
78484;SDS011;67773;50.806;8.776;2023-04-27T12:08:16;8.82;;;5.25;;
78484;SDS011;67773;50.806;8.776;2023-04-27T12:10:43;8.55;;;4.70;;
78484;SDS011;67773;50.806;8.776;2023-04-27T12:13:09;7.28;;;4.93;;
78484;SDS011;67773;50.806;8.776;2023-04-27T12:15:34;7.50;;;4.70;;
78484;SDS011;67773;50.806;8.776;2023-04-27T12:18:00;5.95;;;4.47;;
78484;SDS011;67773;50.806;8.776;2023-04-27T12:20:25;6.37;;;4.50;;
78484;SDS011;67773;50.806;8.776;2023-04-27T12:22:50;6.13;;;4.28;;
78484;SDS011;67773;50.806;8.776;2023-04-27T12:25:16;4.97;;;4.00;;
78484;SDS011;67773;50.806;8.776;2023-04-27T12:27:42;8.48;;;4.20;;
78484;SDS011;67773;50.806;8.776;2023-04-27T12:30:11;6.38;;;4.35;;
78484;SDS011;67773;50.806;8.776;2023-04-27T12:32:37;5.28;;;3.20;;
78484;SDS011;67773;50.806;8.776;2023-04-27T12:35:04;6.07;;;3.83;;
78484;SDS011;67773;50.806;8.776;2023-04-27T12:37:30;4.72;;;3.40;;
78484;SDS011;67773;50.806;8.776;2023-04-27T12:39:56;5.93;;;3.50;;
78484;SDS011;67773;50.806;8.776;2023-04-27T12:42:22;6.13;;;3.93;;
78484;SDS011;67773;50.806;8.776;2023-04-27T12:44:48;7.00;;;3.78;;
78484;SDS011;67773;50.806;8.776;2023-04-27T12:47:15;6.13;;;3.90;;
78484;SDS011;67773;50.806;8.776;2023-04-27T12:49:40;8.00;;;4.03;;
78484;SDS011;67773;50.806;8.776;2023-04-27T12:52:06;9.25;;;5.65;;
78484;SDS011;67773;50.806;8.776;2023-04-27T12:54:31;6.53;;;4.03;;
78484;SDS011;67773;50.806;8.776;2023-04-27T12:56:57;6.40;;;3.65;;
78484;SDS011;67773;50.806;8.776;2023-04-27T12:59:22;7.05;;;3.83;;
78484;SDS011;67773;50.806;8.776;2023-04-27T13:01:47;8.80;;;3.87;;
78484;SDS011;67773;50.806;8.776;2023-04-27T13:04:16;6.25;;;3.58;;
78484;SDS011;67773;50.806;8.776;2023-04-27T13:09:09;7.30;;;3.50;;
78484;SDS011;67773;50.806;8.776;2023-04-27T13:11:34;6.53;;;3.73;;
78484;SDS011;67773;50.806;8.776;2023-04-27T13:13:59;6.20;;;2.90;;
78484;SDS011;67773;50.806;8.776;2023-04-27T13:16:26;5.65;;;3.85;;
78484;SDS011;67773;50.806;8.776;2023-04-27T13:18:51;5.53;;;3.42;;
78484;SDS011;67773;50.806;8.776;2023-04-27T13:21:17;6.28;;;4.03;;
78484;SDS011;67773;50.806;8.776;2023-04-27T13:23:42;9.50;;;4.32;;
78484;SDS011;67773;50.806;8.776;2023-04-27T13:26:08;6.10;;;4.03;;
78484;SDS011;67773;50.806;8.776;2023-04-27T13:28:33;6.33;;;3.83;;
78484;SDS011;67773;50.806;8.776;2023-04-27T13:30:58;7.27;;;3.67;;
78484;SDS011;67773;50.806;8.776;2023-04-27T13:33:24;5.85;;;3.45;;
78484;SDS011;67773;50.806;8.776;2023-04-27T13:35:50;5.50;;;3.33;;
78484;SDS011;67773;50.806;8.776;2023-04-27T13:38:15;6.32;;;3.65;;
78484;SDS011;67773;50.806;8.776;2023-04-27T13:40:40;6.22;;;3.35;;
78484;SDS011;67773;50.806;8.776;2023-04-27T13:43:07;6.22;;;3.22;;
78484;SDS011;67773;50.806;8.776;2023-04-27T13:45:33;5.70;;;3.80;;
78484;SDS011;67773;50.806;8.776;2023-04-27T13:47:58;5.43;;;3.60;;
78484;SDS011;67773;50.806;8.776;2023-04-27T13:50:23;5.43;;;3.20;;
78484;SDS011;67773;50.806;8.776;2023-04-27T13:52:48;4.77;;;3.83;;
78484;SDS011;67773;50.806;8.776;2023-04-27T13:55:14;4.83;;;3.20;;
78484;SDS011;67773;50.806;8.776;2023-04-27T13:57:39;8.10;;;3.65;;
78484;SDS011;67773;50.806;8.776;2023-04-27T14:00:05;4.72;;;2.67;;
78484;SDS011;67773;50.806;8.776;2023-04-27T14:02:32;5.20;;;2.90;;
78484;SDS011;67773;50.806;8.776;2023-04-27T14:04:58;7.80;;;3.75;;
78484;SDS011;67773;50.806;8.776;2023-04-27T14:07:23;4.70;;;3.43;;
78484;SDS011;67773;50.806;8.776;2023-04-27T14:09:49;4.80;;;3.00;;
78484;SDS011;67773;50.806;8.776;2023-04-27T14:12:15;5.53;;;3.28;;
78484;SDS011;67773;50.806;8.776;2023-04-27T14:14:40;6.90;;;3.50;;
78484;SDS011;67773;50.806;8.776;2023-04-27T14:17:05;4.97;;;2.70;;
78484;SDS011;67773;50.806;8.776;2023-04-27T14:19:31;5.30;;;3.00;;
78484;SDS011;67773;50.806;8.776;2023-04-27T14:21:57;4.70;;;3.08;;
78484;SDS011;67773;50.806;8.776;2023-04-27T14:24:23;10.13;;;4.95;;
78484;SDS011;67773;50.806;8.776;2023-04-27T14:26:48;4.35;;;2.78;;
78484;SDS011;67773;50.806;8.776;2023-04-27T14:29:15;8.40;;;4.00;;
78484;SDS011;67773;50.806;8.776;2023-04-27T14:31:40;7.25;;;4.80;;
78484;SDS011;67773;50.806;8.776;2023-04-27T14:34:06;5.83;;;2.90;;
78484;SDS011;67773;50.806;8.776;2023-04-27T14:36:32;5.28;;;3.10;;
78484;SDS011;67773;50.806;8.776;2023-04-27T14:38:58;7.32;;;3.03;;
78484;SDS011;67773;50.806;8.776;2023-04-27T14:41:25;4.80;;;2.95;;
78484;SDS011;67773;50.806;8.776;2023-04-27T14:43:51;7.57;;;3.28;;
78484;SDS011;67773;50.806;8.776;2023-04-27T14:46:16;7.40;;;3.20;;
78484;SDS011;67773;50.806;8.776;2023-04-27T14:48:42;5.63;;;2.85;;
78484;SDS011;67773;50.806;8.776;2023-04-27T14:51:08;7.68;;;3.40;;
78484;SDS011;67773;50.806;8.776;2023-04-27T14:53:33;5.40;;;2.87;;
78484;SDS011;67773;50.806;8.776;2023-04-27T14:55:59;4.17;;;2.80;;
78484;SDS011;67773;50.806;8.776;2023-04-27T14:58:24;7.20;;;3.03;;
78484;SDS011;67773;50.806;8.776;2023-04-27T15:00:50;6.35;;;2.70;;
78484;SDS011;67773;50.806;8.776;2023-04-27T15:03:15;4.60;;;2.90;;
78484;SDS011;67773;50.806;8.776;2023-04-27T15:05:41;4.57;;;3.13;;
78484;SDS011;67773;50.806;8.776;2023-04-27T15:08:07;6.90;;;2.83;;
78484;SDS011;67773;50.806;8.776;2023-04-27T15:10:32;5.72;;;2.90;;
78484;SDS011;67773;50.806;8.776;2023-04-27T15:12:57;3.75;;;2.30;;
78484;SDS011;67773;50.806;8.776;2023-04-27T15:15:23;5.33;;;2.90;;
78484;SDS011;67773;50.806;8.776;2023-04-27T15:17:48;21.03;;;10.67;;
78484;SDS011;67773;50.806;8.776;2023-04-27T15:20:13;4.83;;;3.10;;
78484;SDS011;67773;50.806;8.776;2023-04-27T15:22:39;5.65;;;2.78;;
78484;SDS011;67773;50.806;8.776;2023-04-27T15:25:04;5.03;;;2.63;;
78484;SDS011;67773;50.806;8.776;2023-04-27T15:27:29;4.68;;;3.08;;
78484;SDS011;67773;50.806;8.776;2023-04-27T15:29:56;4.00;;;2.63;;
78484;SDS011;67773;50.806;8.776;2023-04-27T15:32:22;5.20;;;2.92;;
78484;SDS011;67773;50.806;8.776;2023-04-27T15:34:51;3.95;;;2.65;;
78484;SDS011;67773;50.806;8.776;2023-04-27T15:37:17;5.30;;;3.00;;
78484;SDS011;67773;50.806;8.776;2023-04-27T15:39:43;7.18;;;3.83;;
78484;SDS011;67773;50.806;8.776;2023-04-27T15:42:08;5.37;;;3.50;;
78484;SDS011;67773;50.806;8.776;2023-04-27T15:44:33;4.77;;;2.33;;
78484;SDS011;67773;50.806;8.776;2023-04-27T15:46:59;6.40;;;3.08;;
78484;SDS011;67773;50.806;8.776;2023-04-27T15:49:24;9.67;;;2.80;;